Main page
METAR-TAF:

METAR-TAF

Airports :

Guelmim Airport

Guelmim, Morocco

latitude: 29-01-00N, longitude: 10-04-04W, elevation: 301 m

Current weather observation

The report was made 25 minutes ago, at 16:00 UTC
Wind 12 kt from the West
Temperature 25°C
Humidity 18%
Pressure 1018 hPa
Visibility 10 km or more
no clouds below 1500 m and no cumulonimbus

METAR: GMAG 231600Z 28012KT CAVOK 25/M01 Q1018

Time: 17:25 (16:25 UTC)

Forecast

The report was made 5 hours and 25 minutes ago, at 11:00 UTC
Forecast valid from 23 at 12 UTC to 24 at 18 UTC
Wind 10 kt from the South/Southeast
Visibility: 7000 m

TAF: GMAG 231100Z 2312/2418 16010KT 7000 NSC

Weather observations and forecasts of more than 4000 airports (METAR and TAF reports).

The available stations are represented by yellow and red dots on the map.

Hover mouse over dot to see the name of the station.

Then click to see weather observations and forecasts.

To change the map : click on the green buttons with a black cross to zoom in, on the green button with a dash to zoom out, or on the green arrows for adjacent maps.


METAR-TAF: